createdAt,value
2023-03-30T00:00:49.408Z,9.279810
2023-03-30T00:01:49.385Z,9.279896
2023-03-30T00:02:49.746Z,9.279947
2023-03-30T00:03:49.519Z,9.279896
2023-03-30T00:04:49.479Z,9.279939
2023-03-30T00:05:49.314Z,9.279935
2023-03-30T00:06:49.291Z,9.279894
2023-03-30T00:07:49.271Z,9.279936
2023-03-30T00:08:49.253Z,9.279940
2023-03-30T00:09:49.261Z,9.279918
2023-03-30T00:10:49.299Z,9.279888
2023-03-30T00:11:49.208Z,9.279940
2023-03-30T00:12:49.177Z,9.279952
2023-03-30T00:13:49.169Z,9.279996
2023-03-30T00:14:49.196Z,9.279883
2023-03-30T00:15:49.121Z,9.279945
2023-03-30T00:16:49.148Z,9.279979
2023-03-30T00:17:49.106Z,9.280012
2023-03-30T00:18:49.065Z,9.280029
2023-03-30T00:19:49.079Z,9.279943
2023-03-30T00:20:49.033Z,9.279948
2023-03-30T00:21:49.015Z,9.279963
2023-03-30T00:22:48.992Z,9.279934
2023-03-30T00:23:48.972Z,9.279916
2023-03-30T00:24:48.961Z,9.279990
2023-03-30T00:25:48.958Z,9.279882
2023-03-30T00:26:48.919Z,9.279887
2023-03-30T00:27:48.899Z,9.279906
2023-03-30T00:28:48.882Z,9.279940
2023-03-30T00:29:48.861Z,9.279930
2023-03-30T00:30:48.876Z,9.279915
2023-03-30T00:31:48.879Z,9.279961
2023-03-30T00:32:48.852Z,9.279886
2023-03-30T00:33:48.789Z,9.279921
2023-03-30T00:34:48.781Z,9.279937
2023-03-30T00:35:48.791Z,9.279953
2023-03-30T00:36:48.733Z,9.279987
2023-03-30T00:37:48.712Z,9.279799
2023-03-30T00:38:48.691Z,9.279895
2023-03-30T00:39:48.706Z,9.279903
2023-03-30T00:40:48.688Z,9.279897
2023-03-30T00:41:48.642Z,9.279880
2023-03-30T00:42:48.620Z,9.279863
2023-03-30T00:43:49.613Z,9.279845
2023-03-30T00:44:48.591Z,9.279832
2023-03-30T00:45:48.792Z,9.279893
2023-03-30T00:46:48.565Z,9.279922
2023-03-30T00:47:48.540Z,9.279964
2023-03-30T00:48:48.522Z,9.279931
2023-03-30T00:49:48.507Z,9.279970
2023-03-30T00:50:48.512Z,9.279975
2023-03-30T00:51:48.471Z,9.279885
2023-03-30T00:52:48.444Z,9.279879
2023-03-30T00:53:48.439Z,9.279999
2023-03-30T00:54:48.410Z,9.279926
2023-03-30T00:55:48.420Z,9.279922
2023-03-30T00:56:48.438Z,9.279917
2023-03-30T00:57:48.361Z,9.279928
2023-03-30T00:58:48.342Z,9.279902
2023-03-30T00:59:48.323Z,9.279963
2023-03-30T01:00:48.333Z,9.279923
2023-03-30T01:01:48.316Z,9.279871
2023-03-30T01:02:48.387Z,9.279971
2023-03-30T01:03:48.561Z,9.280025
2023-03-30T01:04:48.234Z,9.280022
2023-03-30T01:05:48.254Z,9.279969
2023-03-30T01:06:48.202Z,9.280013
2023-03-30T01:07:48.184Z,9.279901
2023-03-30T01:08:48.177Z,9.279943
2023-03-30T01:09:48.160Z,9.279892
2023-03-30T01:10:48.181Z,9.279919
2023-03-30T01:11:48.126Z,9.279908
2023-03-30T01:12:48.107Z,9.279887
2023-03-30T01:13:48.082Z,9.279987
2023-03-30T01:14:48.065Z,9.280003
2023-03-30T01:15:48.117Z,9.279940
2023-03-30T01:16:48.028Z,9.279866
2023-03-30T01:17:48.040Z,9.279869
2023-03-30T01:18:48.003Z,9.279952
2023-03-30T01:19:47.984Z,9.279982
2023-03-30T01:20:47.995Z,9.279877
2023-03-30T01:21:47.945Z,9.279916
2023-03-30T01:22:47.928Z,9.280000
2023-03-30T01:23:47.913Z,9.279968
2023-03-30T01:24:47.900Z,9.280035
2023-03-30T01:25:47.910Z,9.279998
2023-03-30T01:26:47.862Z,9.279935
2023-03-30T01:27:47.846Z,9.279991
2023-03-30T01:28:47.831Z,9.279950
2023-03-30T01:29:47.825Z,9.279964
2023-03-30T01:30:47.830Z,9.279891
2023-03-30T01:31:47.806Z,9.279975
2023-03-30T01:32:47.798Z,9.279966
2023-03-30T01:33:47.739Z,9.279977
2023-03-30T01:34:47.726Z,9.279984
2023-03-30T01:35:47.837Z,9.279899
2023-03-30T01:36:47.685Z,9.279957
2023-03-30T01:37:47.668Z,9.279980
2023-03-30T01:38:47.651Z,9.279980
2023-03-30T01:39:47.654Z,9.279890
2023-03-30T01:40:47.651Z,9.279854
2023-03-30T01:41:47.599Z,9.279909
2023-03-30T01:42:47.582Z,9.279945
2023-03-30T01:43:47.562Z,9.279865
2023-03-30T01:44:47.544Z,9.279988
2023-03-30T01:45:47.562Z,9.279978
2023-03-30T01:46:47.551Z,9.279921
2023-03-30T01:47:47.519Z,9.279927
2023-03-30T01:48:47.468Z,9.279938
2023-03-30T01:49:47.451Z,9.279872
2023-03-30T01:50:47.465Z,9.279861
2023-03-30T01:51:47.421Z,9.279910
2023-03-30T01:52:50.205Z,9.280018
2023-03-30T01:53:47.387Z,9.280025
2023-03-30T01:54:47.370Z,9.279976
2023-03-30T01:55:47.371Z,9.280076
2023-03-30T01:56:47.365Z,9.279969
2023-03-30T01:57:47.312Z,9.280081
2023-03-30T01:58:47.301Z,9.279918
2023-03-30T01:59:47.280Z,9.279859
2023-03-30T02:00:47.289Z,9.279885
2023-03-30T02:01:47.293Z,9.279927
2023-03-30T02:02:47.316Z,9.279943
2023-03-30T02:03:47.277Z,9.279962
2023-03-30T02:04:47.187Z,9.279948
2023-03-30T02:05:47.198Z,9.279961
2023-03-30T02:06:47.151Z,9.279983
2023-03-30T02:07:47.135Z,9.280022
2023-03-30T02:08:47.117Z,9.280007
2023-03-30T02:09:47.102Z,9.280017
2023-03-30T02:10:47.110Z,9.280009
2023-03-30T02:11:47.061Z,9.279992
2023-03-30T02:12:47.048Z,9.279904
2023-03-30T02:13:47.024Z,9.279860
2023-03-30T02:14:47.028Z,9.279880
2023-03-30T02:15:47.015Z,9.279880
2023-03-30T02:16:48.026Z,9.279882
2023-03-30T02:17:46.971Z,9.279828
2023-03-30T02:18:46.928Z,9.279902
2023-03-30T02:19:47.925Z,9.279907
2023-03-30T02:20:46.930Z,9.279909
2023-03-30T02:21:46.888Z,9.279948
2023-03-30T02:22:46.865Z,9.279976
2023-03-30T02:23:46.853Z,9.279811
2023-03-30T02:24:46.832Z,9.279957
2023-03-30T02:25:46.848Z,9.279972
2023-03-30T02:26:46.798Z,9.279897
2023-03-30T02:27:46.776Z,9.279924
2023-03-30T02:28:46.763Z,9.279925
2023-03-30T02:29:46.756Z,9.279960
2023-03-30T02:30:46.755Z,9.279830
2023-03-30T02:31:46.783Z,9.279896
2023-03-30T02:32:46.741Z,9.279891
2023-03-30T02:33:46.674Z,9.279794
2023-03-30T02:34:46.657Z,9.279786
2023-03-30T02:35:46.714Z,9.279800
2023-03-30T02:36:46.620Z,9.279796
2023-03-30T02:37:46.610Z,9.279860
2023-03-30T02:38:46.584Z,9.279848
2023-03-30T02:39:46.578Z,9.279714
2023-03-30T02:40:46.601Z,9.279645
2023-03-30T02:41:46.541Z,9.279735
2023-03-30T02:42:46.526Z,9.279900
2023-03-30T02:43:46.501Z,9.279909
2023-03-30T02:44:46.491Z,9.279806
2023-03-30T02:45:46.548Z,9.279851
2023-03-30T02:46:46.447Z,9.279867
2023-03-30T02:47:46.480Z,9.279588
2023-03-30T02:48:46.416Z,9.279735
2023-03-30T02:49:46.401Z,9.279797
2023-03-30T02:50:46.408Z,9.279833
2023-03-30T02:51:46.364Z,9.279909
2023-03-30T02:52:46.354Z,9.279828
2023-03-30T02:53:46.347Z,9.279765
2023-03-30T02:54:46.316Z,9.279772
2023-03-30T02:55:46.327Z,9.279825
2023-03-30T02:56:46.318Z,9.279806
2023-03-30T02:57:46.258Z,9.279805
2023-03-30T02:58:46.269Z,9.279708
2023-03-30T02:59:46.229Z,9.279782
2023-03-30T03:00:46.239Z,9.279696
2023-03-30T03:01:46.240Z,9.279737
2023-03-30T03:02:46.293Z,9.279825
2023-03-30T03:03:46.241Z,9.279696
2023-03-30T03:04:46.155Z,9.279835
2023-03-30T03:05:46.164Z,9.279938
2023-03-30T03:06:46.102Z,9.279840
2023-03-30T03:07:46.085Z,9.279792
2023-03-30T03:08:46.095Z,9.279921
2023-03-30T03:09:46.060Z,9.279882
2023-03-30T03:10:46.035Z,9.279779
2023-03-30T03:11:46.041Z,9.279833
2023-03-30T03:12:45.997Z,9.279850
2023-03-30T03:13:45.982Z,9.279874
2023-03-30T03:14:45.961Z,9.280046
2023-03-30T03:15:45.944Z,9.279924
2023-03-30T03:16:45.973Z,9.279895
2023-03-30T03:17:45.978Z,9.279861
2023-03-30T03:18:45.888Z,9.279881
2023-03-30T03:19:45.871Z,9.279902
2023-03-30T03:20:45.856Z,9.279834
2023-03-30T03:21:45.868Z,9.279875
2023-03-30T03:22:45.821Z,9.279857
2023-03-30T03:23:45.803Z,9.279752
2023-03-30T03:24:45.790Z,9.279862
2023-03-30T03:25:45.769Z,9.279795
2023-03-30T03:26:45.766Z,9.279855
2023-03-30T03:27:45.720Z,9.279718
2023-03-30T03:28:45.723Z,9.279799
2023-03-30T03:29:45.694Z,9.279838
2023-03-30T03:30:45.712Z,9.279819
2023-03-30T03:31:45.678Z,9.279914
2023-03-30T03:32:45.666Z,9.279892
2023-03-30T03:33:45.619Z,9.279828
2023-03-30T03:34:45.596Z,9.279866
2023-03-30T03:35:45.598Z,9.279783
2023-03-30T03:36:45.587Z,9.279819
2023-03-30T03:37:45.538Z,9.279780
2023-03-30T03:38:45.517Z,9.279774
2023-03-30T03:39:45.499Z,9.279889
2023-03-30T03:40:45.476Z,9.279894
2023-03-30T03:41:45.494Z,9.279904
2023-03-30T03:42:45.447Z,9.279935
2023-03-30T03:43:45.434Z,9.279902
2023-03-30T03:44:45.411Z,9.279735
2023-03-30T03:45:45.399Z,9.279727
2023-03-30T03:46:45.436Z,9.279794
2023-03-30T03:47:46.423Z,9.279868
2023-03-30T03:48:45.341Z,9.279767
2023-03-30T03:49:45.316Z,9.279771
2023-03-30T03:50:45.300Z,9.279884
2023-03-30T03:51:45.312Z,9.279930
2023-03-30T03:52:45.269Z,9.279885
2023-03-30T03:53:45.254Z,9.279840
2023-03-30T03:54:45.235Z,9.279907
2023-03-30T03:55:45.215Z,9.279894
2023-03-30T03:56:45.274Z,9.280009
2023-03-30T03:57:45.174Z,9.280042
2023-03-30T03:58:45.152Z,9.279986
2023-03-30T03:59:45.137Z,9.279964
2023-03-30T04:00:45.157Z,9.279995
2023-03-30T04:01:45.129Z,9.280005
2023-03-30T04:02:45.168Z,9.279907
2023-03-30T04:03:45.076Z,9.280060
2023-03-30T04:04:45.102Z,9.280085
2023-03-30T04:05:45.029Z,9.280063
2023-03-30T04:06:45.039Z,9.280005
2023-03-30T04:07:44.991Z,9.279856
2023-03-30T04:08:44.972Z,9.279880
2023-03-30T04:09:44.987Z,9.279943
2023-03-30T04:10:44.937Z,9.279956
2023-03-30T04:11:44.955Z,9.280049
2023-03-30T04:12:44.907Z,9.279848
2023-03-30T04:13:44.882Z,9.280016
2023-03-30T04:14:44.861Z,9.279874
2023-03-30T04:15:44.831Z,9.279861
2023-03-30T04:16:44.891Z,9.279984
2023-03-30T04:17:47.286Z,9.279913
2023-03-30T04:18:45.777Z,9.280065
2023-03-30T04:19:44.766Z,9.280152
2023-03-30T04:20:44.739Z,9.279956
2023-03-30T04:21:44.750Z,9.280002
2023-03-30T04:22:44.713Z,9.280041
2023-03-30T04:23:44.680Z,9.279944
2023-03-30T04:24:44.706Z,9.279985
2023-03-30T04:25:44.641Z,9.280040
2023-03-30T04:26:44.658Z,9.280016
2023-03-30T04:27:44.617Z,9.280007
2023-03-30T04:28:44.589Z,9.279993
2023-03-30T04:29:44.578Z,9.279936
2023-03-30T04:30:44.549Z,9.279979
2023-03-30T04:31:44.586Z,9.280060
2023-03-30T04:32:44.564Z,9.280024
2023-03-30T04:33:46.617Z,9.279969
2023-03-30T04:34:44.483Z,9.279837
2023-03-30T04:35:44.497Z,9.280034
2023-03-30T04:36:44.507Z,9.279989
2023-03-30T04:37:44.427Z,9.280097
2023-03-30T04:38:44.402Z,9.279978
2023-03-30T04:39:44.385Z,9.279997
2023-03-30T04:40:44.367Z,9.279942
2023-03-30T04:41:44.377Z,9.280084
2023-03-30T04:42:44.333Z,9.280053
2023-03-30T04:43:44.316Z,9.279969
2023-03-30T04:44:44.296Z,9.279918
2023-03-30T04:45:44.301Z,9.279984
2023-03-30T04:46:44.280Z,9.280071
2023-03-30T04:47:45.285Z,9.280079
2023-03-30T04:48:44.228Z,9.279978
2023-03-30T04:49:44.202Z,9.279983
2023-03-30T04:50:45.186Z,9.279986
2023-03-30T04:51:44.196Z,9.279811
2023-03-30T04:52:44.148Z,9.279716
2023-03-30T04:53:44.137Z,9.279686
2023-03-30T04:54:44.117Z,9.279858
2023-03-30T04:55:44.105Z,9.279779
2023-03-30T04:56:44.210Z,9.279687
2023-03-30T04:57:44.061Z,9.279820
2023-03-30T04:58:44.051Z,9.279779
2023-03-30T04:59:44.027Z,9.279917
2023-03-30T05:00:44.007Z,9.279916
2023-03-30T05:01:44.212Z,9.279906
2023-03-30T05:02:44.044Z,9.279880
2023-03-30T05:03:44.021Z,9.279882
2023-03-30T05:04:43.934Z,9.279893
2023-03-30T05:05:43.948Z,9.279892
2023-03-30T05:06:43.924Z,9.279759
2023-03-30T05:07:43.891Z,9.279815
2023-03-30T05:08:43.870Z,9.279842
2023-03-30T05:09:43.845Z,9.279761
2023-03-30T05:10:43.826Z,9.279720
2023-03-30T05:11:43.840Z,9.279795
2023-03-30T05:12:43.792Z,9.279913
2023-03-30T05:13:43.769Z,9.279855
2023-03-30T05:14:43.757Z,9.279857
2023-03-30T05:15:43.742Z,9.279853
2023-03-30T05:16:43.772Z,9.279788
2023-03-30T05:17:43.728Z,9.279853
2023-03-30T05:18:43.682Z,9.279816
2023-03-30T05:19:43.664Z,9.279846
2023-03-30T05:20:43.643Z,9.279901
2023-03-30T05:21:43.651Z,9.279924
2023-03-30T05:22:43.615Z,9.279940
2023-03-30T05:23:43.605Z,9.279949
2023-03-30T05:24:43.572Z,9.279904
2023-03-30T05:25:43.552Z,9.279807
2023-03-30T05:26:43.566Z,9.279828
2023-03-30T05:27:43.524Z,9.279799
2023-03-30T05:28:43.500Z,9.279817
2023-03-30T05:29:43.491Z,9.279880
2023-03-30T05:30:43.469Z,9.279829
2023-03-30T05:31:43.521Z,9.279755
2023-03-30T05:32:43.444Z,9.279805
2023-03-30T05:33:44.011Z,9.279827
2023-03-30T05:34:44.383Z,9.279877
2023-03-30T05:35:43.392Z,9.279864
2023-03-30T05:36:43.373Z,9.279853
2023-03-30T05:37:43.330Z,9.279942
2023-03-30T05:38:43.316Z,9.279902
2023-03-30T05:39:43.293Z,9.279821
2023-03-30T05:40:43.456Z,9.279886
2023-03-30T05:41:43.319Z,9.279796
2023-03-30T05:42:43.280Z,9.279819
2023-03-30T05:43:43.216Z,9.279754
2023-03-30T05:44:43.203Z,9.279853
2023-03-30T05:45:43.182Z,9.280029
2023-03-30T05:46:43.240Z,9.280138
2023-03-30T05:47:43.202Z,9.279943
2023-03-30T05:48:43.135Z,9.279938
2023-03-30T05:49:43.110Z,9.279916
2023-03-30T05:50:43.145Z,9.279902
2023-03-30T05:51:43.074Z,9.279860
2023-03-30T05:52:43.052Z,9.279840
2023-03-30T05:53:43.037Z,9.279839
2023-03-30T05:54:43.013Z,9.279926
2023-03-30T05:55:42.991Z,9.279943
2023-03-30T05:56:43.041Z,9.279875
2023-03-30T05:57:42.982Z,9.279818
2023-03-30T05:58:42.932Z,9.279907
2023-03-30T05:59:43.949Z,9.279986
2023-03-30T06:00:42.894Z,9.279834
2023-03-30T06:01:42.881Z,9.279929
2023-03-30T06:02:42.961Z,9.279895
2023-03-30T06:03:42.993Z,9.279881
2023-03-30T06:04:42.848Z,9.279881
2023-03-30T06:05:42.797Z,9.279910
2023-03-30T06:06:42.784Z,9.280023
2023-03-30T06:07:42.786Z,9.279947
2023-03-30T06:08:42.746Z,9.279857
2023-03-30T06:09:42.715Z,9.279846
2023-03-30T06:10:42.699Z,9.279913
2023-03-30T06:11:42.776Z,9.280055
2023-03-30T06:12:42.684Z,9.279897
2023-03-30T06:13:42.635Z,9.279989
2023-03-30T06:14:42.615Z,9.279897
2023-03-30T06:15:42.597Z,9.279881
2023-03-30T06:16:42.594Z,9.279906
2023-03-30T06:17:42.634Z,9.279843
2023-03-30T06:18:42.536Z,9.279943
2023-03-30T06:19:42.516Z,9.279828
2023-03-30T06:20:42.499Z,9.279953
2023-03-30T06:21:42.474Z,9.279809
2023-03-30T06:22:42.480Z,9.279883
2023-03-30T06:23:42.439Z,9.279918
2023-03-30T06:24:42.414Z,9.279891
2023-03-30T06:25:42.400Z,9.279899
2023-03-30T06:26:42.382Z,9.279877
2023-03-30T06:27:44.662Z,9.279908
2023-03-30T06:28:42.339Z,9.279972
2023-03-30T06:29:42.345Z,9.279977
2023-03-30T06:30:42.306Z,9.279896
2023-03-30T06:31:42.343Z,9.279930
2023-03-30T06:32:42.365Z,9.279833
2023-03-30T06:33:42.356Z,9.279882
2023-03-30T06:34:42.229Z,9.279860
2023-03-30T06:35:42.218Z,9.279868
2023-03-30T06:36:44.863Z,9.279979
2023-03-30T06:37:42.196Z,9.279866
2023-03-30T06:38:42.146Z,9.279839
2023-03-30T06:39:42.131Z,9.279895
2023-03-30T06:40:42.105Z,9.279928
2023-03-30T06:41:42.094Z,9.279939
2023-03-30T06:42:42.102Z,9.279980
2023-03-30T06:43:42.050Z,9.280001
2023-03-30T06:44:42.034Z,9.279966
2023-03-30T06:45:42.041Z,9.279914
2023-03-30T06:46:41.997Z,9.279919
2023-03-30T06:47:42.029Z,9.279976
2023-03-30T06:48:41.951Z,9.279891
2023-03-30T06:49:41.951Z,9.279886
2023-03-30T06:50:41.925Z,9.279874
2023-03-30T06:51:41.955Z,9.279992
2023-03-30T06:52:41.907Z,9.279901
2023-03-30T06:53:41.861Z,9.279946
2023-03-30T06:54:42.843Z,9.279937
2023-03-30T06:55:42.197Z,9.279918
2023-03-30T06:56:41.835Z,9.280013
2023-03-30T06:57:41.807Z,9.280038
2023-03-30T06:58:42.766Z,9.279909
2023-03-30T06:59:41.750Z,9.279917
2023-03-30T07:00:41.726Z,9.279969
2023-03-30T07:01:41.766Z,9.279832
2023-03-30T07:02:41.773Z,9.279922
2023-03-30T07:03:41.692Z,9.279924
2023-03-30T07:04:41.684Z,9.279959
2023-03-30T07:05:41.642Z,9.279928
2023-03-30T07:06:41.609Z,9.279873
2023-03-30T07:07:41.622Z,9.279851
2023-03-30T07:08:41.611Z,9.279881
2023-03-30T07:09:41.559Z,9.279908
2023-03-30T07:10:41.536Z,9.279929
2023-03-30T07:11:41.520Z,9.279902
2023-03-30T07:12:41.538Z,9.279899
2023-03-30T07:13:41.487Z,9.279881
2023-03-30T07:14:41.465Z,9.279903
2023-03-30T07:15:41.447Z,9.279881
2023-03-30T07:16:41.464Z,9.279797
2023-03-30T07:17:41.520Z,9.279884
2023-03-30T07:18:41.383Z,9.279894
2023-03-30T07:19:41.465Z,9.279887
2023-03-30T07:20:41.342Z,9.279946
2023-03-30T07:21:41.327Z,9.279989
2023-03-30T07:22:41.343Z,9.280023
2023-03-30T07:23:41.288Z,9.279985
2023-03-30T07:24:41.289Z,9.279903
2023-03-30T07:25:41.270Z,9.279840
2023-03-30T07:26:41.227Z,9.279824
2023-03-30T07:27:41.249Z,9.279896
2023-03-30T07:28:41.265Z,9.279903
2023-03-30T07:29:41.179Z,9.279872
2023-03-30T07:30:41.225Z,9.279838
2023-03-30T07:31:41.343Z,9.279799
2023-03-30T07:32:41.257Z,9.279919
2023-03-30T07:33:41.105Z,9.279875
2023-03-30T07:34:41.076Z,9.279903
2023-03-30T07:35:41.080Z,9.279819
2023-03-30T07:36:42.078Z,9.279894
2023-03-30T07:37:41.038Z,9.279917
2023-03-30T07:38:40.998Z,9.279814
2023-03-30T07:39:40.978Z,9.279819
2023-03-30T07:40:40.957Z,9.279729
2023-03-30T07:41:40.937Z,9.279859
2023-03-30T07:42:40.955Z,9.279980
2023-03-30T07:43:40.903Z,9.279895
2023-03-30T07:44:40.883Z,9.279931
2023-03-30T07:45:40.862Z,9.279900
2023-03-30T07:46:40.864Z,9.279822
2023-03-30T07:47:40.870Z,9.279937
2023-03-30T07:48:40.809Z,9.279937
2023-03-30T07:49:40.789Z,9.280007
2023-03-30T07:50:40.793Z,9.280056
2023-03-30T07:51:40.755Z,9.279920
2023-03-30T07:52:40.769Z,9.279919
2023-03-30T07:53:40.715Z,9.279937
2023-03-30T07:54:40.694Z,9.279967
2023-03-30T07:55:40.672Z,9.279989
2023-03-30T07:56:40.684Z,9.280099
2023-03-30T07:57:40.668Z,9.279971
2023-03-30T07:58:40.633Z,9.279943
2023-03-30T07:59:40.601Z,9.279969
2023-03-30T08:00:40.578Z,9.279930
2023-03-30T08:01:40.560Z,9.279880
2023-03-30T08:02:40.668Z,9.279802
2023-03-30T08:03:40.609Z,9.280016
2023-03-30T08:04:40.650Z,9.279912
2023-03-30T08:05:40.476Z,9.280109
2023-03-30T08:06:40.465Z,9.279932
2023-03-30T08:07:40.476Z,9.279928
2023-03-30T08:08:40.423Z,9.279933
2023-03-30T08:09:40.409Z,9.279922
2023-03-30T08:10:40.380Z,9.279936
2023-03-30T08:11:40.359Z,9.279996
2023-03-30T08:12:40.389Z,9.279986
2023-03-30T08:13:40.325Z,9.279867
2023-03-30T08:14:40.300Z,9.279960
2023-03-30T08:15:40.336Z,9.279916
2023-03-30T08:16:40.326Z,9.279919
2023-03-30T08:17:40.374Z,9.279888
2023-03-30T08:18:40.253Z,9.279931
2023-03-30T08:19:40.198Z,9.279876
2023-03-30T08:20:40.175Z,9.279954
2023-03-30T08:21:40.165Z,9.279939
2023-03-30T08:22:40.167Z,9.279892
2023-03-30T08:23:40.155Z,9.279950
2023-03-30T08:24:40.113Z,9.279979
2023-03-30T08:25:40.070Z,9.279790
2023-03-30T08:26:40.059Z,9.279820
2023-03-30T08:27:40.141Z,9.279944
2023-03-30T08:28:40.012Z,9.280030
2023-03-30T08:29:40.008Z,9.279995
2023-03-30T08:30:39.992Z,9.280070
2023-03-30T08:31:39.975Z,9.280191
2023-03-30T08:32:39.991Z,9.280193
2023-03-30T08:33:39.943Z,9.279886
2023-03-30T08:34:39.907Z,9.280061
2023-03-30T08:35:39.911Z,9.280006
2023-03-30T08:36:39.848Z,9.279959
2023-03-30T08:37:39.873Z,9.280088
2023-03-30T08:38:39.800Z,9.279993
2023-03-30T08:39:39.797Z,9.280138
2023-03-30T08:40:39.762Z,9.280158
2023-03-30T08:41:39.753Z,9.280081
2023-03-30T08:42:39.776Z,9.280051
2023-03-30T08:43:39.694Z,9.280148
2023-03-30T08:44:39.695Z,9.280005
2023-03-30T08:45:41.943Z,9.280087
2023-03-30T08:46:40.646Z,9.280099
2023-03-30T08:47:39.729Z,9.280109
2023-03-30T08:48:39.598Z,9.280128
2023-03-30T08:49:39.624Z,9.280154
2023-03-30T08:50:39.561Z,9.280153
2023-03-30T08:51:39.537Z,9.280149
2023-03-30T08:52:39.561Z,9.280134
2023-03-30T08:53:39.508Z,9.280068
2023-03-30T08:54:39.491Z,9.280047
2023-03-30T08:55:39.465Z,9.280112
2023-03-30T08:56:39.447Z,9.280130
2023-03-30T08:57:39.468Z,9.279948
2023-03-30T08:58:39.438Z,9.280066
2023-03-30T08:59:39.396Z,9.280120
2023-03-30T09:00:39.376Z,9.280110
2023-03-30T09:01:39.386Z,9.280055
2023-03-30T09:02:39.378Z,9.280047
2023-03-30T09:03:39.331Z,9.280101
2023-03-30T09:04:40.327Z,9.280048
2023-03-30T09:05:39.285Z,9.280013
2023-03-30T09:06:39.268Z,9.280074
2023-03-30T09:07:39.248Z,9.280153
2023-03-30T09:08:39.248Z,9.279990
2023-03-30T09:09:39.225Z,9.280075
2023-03-30T09:10:39.185Z,9.280066
2023-03-30T09:11:39.172Z,9.280039
2023-03-30T09:12:39.151Z,9.279999
2023-03-30T09:13:39.168Z,9.280105
2023-03-30T09:14:39.106Z,9.280015
2023-03-30T09:15:39.092Z,9.280148
2023-03-30T09:16:39.137Z,9.280137
2023-03-30T09:17:39.121Z,9.280005
2023-03-30T09:18:39.081Z,9.280046
2023-03-30T09:19:39.041Z,9.280046
2023-03-30T09:20:39.005Z,9.279934
2023-03-30T09:21:39.002Z,9.279973
2023-03-30T09:22:38.968Z,9.280019
2023-03-30T09:23:38.989Z,9.280024
2023-03-30T09:24:38.921Z,9.280070
2023-03-30T09:25:38.910Z,9.280057
2023-03-30T09:26:38.886Z,9.280107
2023-03-30T09:27:38.867Z,9.280033
2023-03-30T09:28:38.883Z,9.280031
2023-03-30T09:29:38.826Z,9.280072
2023-03-30T09:30:38.820Z,9.280092
2023-03-30T09:31:38.825Z,9.280107
2023-03-30T09:32:38.819Z,9.280089
2023-03-30T09:33:38.779Z,9.280028
2023-03-30T09:34:38.738Z,9.280017
2023-03-30T09:35:38.741Z,9.280031
2023-03-30T09:36:38.717Z,9.280055
2023-03-30T09:37:38.687Z,9.279971
2023-03-30T09:38:38.689Z,9.280054
2023-03-30T09:39:38.677Z,9.279917
2023-03-30T09:40:38.640Z,9.280026
2023-03-30T09:41:38.625Z,9.279982
2023-03-30T09:42:38.608Z,9.280039
2023-03-30T09:43:38.604Z,9.280049
2023-03-30T09:44:38.550Z,9.280113
2023-03-30T09:45:38.549Z,9.280219
2023-03-30T09:46:38.654Z,9.280142
2023-03-30T09:47:38.523Z,9.280056
2023-03-30T09:48:38.502Z,9.279936
2023-03-30T09:49:38.476Z,9.280024
2023-03-30T09:50:38.438Z,9.280041
2023-03-30T09:51:38.417Z,9.280274
2023-03-30T09:52:38.406Z,9.280319
2023-03-30T09:53:38.408Z,9.280171
2023-03-30T09:54:38.358Z,9.279969
2023-03-30T09:55:38.362Z,9.280006
2023-03-30T09:56:40.308Z,9.280144
2023-03-30T09:57:38.304Z,9.280077
2023-03-30T09:58:38.316Z,9.279979
2023-03-30T09:59:38.274Z,9.279876
2023-03-30T10:00:38.241Z,9.279986
2023-03-30T10:01:38.472Z,9.280144
2023-03-30T10:02:38.303Z,9.280174
2023-03-30T10:03:38.280Z,9.280201
2023-03-30T10:04:38.251Z,9.280136
2023-03-30T10:05:38.147Z,9.279952
2023-03-30T10:06:38.140Z,9.280025
2023-03-30T10:07:38.112Z,9.279951
2023-03-30T10:08:38.116Z,9.280011
2023-03-30T10:09:38.066Z,9.280087
2023-03-30T10:10:38.056Z,9.280147
2023-03-30T10:11:38.056Z,9.280133
2023-03-30T10:12:38.017Z,9.280166
2023-03-30T10:13:38.056Z,9.280121
2023-03-30T10:14:37.973Z,9.280100
2023-03-30T10:15:38.087Z,9.279994
2023-03-30T10:16:38.053Z,9.279947
2023-03-30T10:17:38.019Z,9.279903
2023-03-30T10:18:37.922Z,9.279933
2023-03-30T10:19:39.569Z,9.279858
2023-03-30T10:20:38.846Z,9.279856
2023-03-30T10:21:37.829Z,9.279862
2023-03-30T10:22:38.814Z,9.279894
2023-03-30T10:23:37.824Z,9.279886
2023-03-30T10:24:37.768Z,9.279924
2023-03-30T10:25:37.752Z,9.279887
2023-03-30T10:26:37.734Z,9.279862
2023-03-30T10:27:37.717Z,9.279886
2023-03-30T10:28:37.732Z,9.279894
2023-03-30T10:29:38.640Z,9.279863
2023-03-30T10:30:37.660Z,9.279819
2023-03-30T10:31:37.656Z,9.279924
2023-03-30T10:32:37.649Z,9.280022
2023-03-30T10:33:37.623Z,9.279967
2023-03-30T10:34:37.578Z,9.280035
2023-03-30T10:35:37.639Z,9.279921
2023-03-30T10:36:37.532Z,9.279964
2023-03-30T10:37:37.521Z,9.279965
2023-03-30T10:38:37.555Z,9.279860
2023-03-30T10:39:37.481Z,9.279833
2023-03-30T10:40:37.492Z,9.279964
2023-03-30T10:41:37.445Z,9.279904
2023-03-30T10:42:37.429Z,9.279937
2023-03-30T10:43:37.442Z,9.279921
2023-03-30T10:44:37.389Z,9.279922
2023-03-30T10:45:37.395Z,9.279970
2023-03-30T10:46:37.357Z,9.279949
2023-03-30T10:47:37.358Z,9.279971
2023-03-30T10:48:37.335Z,9.279997
2023-03-30T10:49:37.291Z,9.280053
2023-03-30T10:50:37.267Z,9.279993
2023-03-30T10:51:37.250Z,9.279924
2023-03-30T10:52:41.028Z,9.279941
2023-03-30T10:53:39.253Z,9.279954
2023-03-30T10:54:37.211Z,9.279969
2023-03-30T10:55:37.173Z,9.279847
2023-03-30T10:56:37.185Z,9.279985
2023-03-30T10:57:37.133Z,9.279944
2023-03-30T10:58:38.146Z,9.279989
2023-03-30T10:59:37.114Z,9.279994
2023-03-30T11:00:37.090Z,9.279999
2023-03-30T11:01:37.134Z,9.279977
2023-03-30T11:02:37.080Z,9.280027
2023-03-30T11:03:37.191Z,9.280083
2023-03-30T11:04:37.010Z,9.280095
2023-03-30T11:05:36.995Z,9.279963
2023-03-30T11:06:36.976Z,9.279963
2023-03-30T11:07:36.952Z,9.279914
2023-03-30T11:08:36.959Z,9.279944
2023-03-30T11:09:36.911Z,9.279898
2023-03-30T11:10:36.890Z,9.279996
2023-03-30T11:11:36.875Z,9.280057
2023-03-30T11:12:36.855Z,9.279943
2023-03-30T11:13:36.862Z,9.279742
2023-03-30T11:14:36.810Z,9.279952
2023-03-30T11:15:36.798Z,9.280041
2023-03-30T11:16:36.823Z,9.280024
2023-03-30T11:17:36.762Z,9.279899
2023-03-30T11:18:36.873Z,9.279922
2023-03-30T11:19:36.709Z,9.279925
2023-03-30T11:20:36.692Z,9.280025
2023-03-30T11:21:36.668Z,9.280005
2023-03-30T11:22:36.650Z,9.280010
2023-03-30T11:23:36.656Z,9.279940
2023-03-30T11:24:36.611Z,9.279722
2023-03-30T11:25:36.584Z,9.279889
2023-03-30T11:26:36.559Z,9.279834
2023-03-30T11:27:36.555Z,9.279942
2023-03-30T11:28:36.550Z,9.280113
2023-03-30T11:29:36.499Z,9.280156
2023-03-30T11:30:36.478Z,9.280019
2023-03-30T11:31:36.492Z,9.280093
2023-03-30T11:32:36.461Z,9.280107
2023-03-30T11:33:36.480Z,9.279824
2023-03-30T11:34:36.394Z,9.280048
2023-03-30T11:35:36.436Z,9.280128
2023-03-30T11:36:36.357Z,9.280076
2023-03-30T11:37:36.352Z,9.280030
2023-03-30T11:38:36.329Z,9.279983
2023-03-30T11:39:36.285Z,9.279984
2023-03-30T11:40:36.263Z,9.280118
2023-03-30T11:41:36.245Z,9.280488
2023-03-30T11:42:36.212Z,9.280434
2023-03-30T11:43:36.233Z,9.279980
2023-03-30T11:44:37.132Z,9.280070